Time;durP1;ratioP1;P1;durP2;ratioP2;P2;SDS_P1;SDS_P2;PMS_P1;PMS_P2;Temp;Humidity;BMP_temperature;BMP_pressure;BME280_temperature;BME280_humidity;BME280_pressure;Samples;Min_cycle;Max_cycle;Signal;HPM_P1;HPM_P2
2023/08/07 00:00:35;;;;;;;1.88;0.70;;;20.90;71.70;;;;;;4976732;28;20027;-68
2023/08/07 00:03:01;;;;;;;1.55;0.75;;;20.90;71.80;;;;;;4978741;28;20031;-68
2023/08/07 00:05:26;;;;;;;2.15;0.80;;;21.00;71.80;;;;;;4978188;28;20266;-68
2023/08/07 00:07:52;;;;;;;0.50;0.50;;;21.00;71.80;;;;;;4979386;28;20050;-68
2023/08/07 00:10:17;;;;;;;2.28;0.60;;;21.00;71.80;;;;;;4981224;28;20042;-68
2023/08/07 00:12:43;;;;;;;0.77;0.57;;;21.00;71.80;;;;;;4981907;28;20034;-68
2023/08/07 00:15:10;;;;;;;1.20;0.68;;;21.00;71.90;;;;;;4981227;28;20050;-69
2023/08/07 00:17:35;;;;;;;1.20;0.82;;;21.00;71.80;;;;;;4979800;28;20030;-68
2023/08/07 00:20:01;;;;;;;1.85;0.88;;;21.00;71.80;;;;;;4983677;28;20033;-68
2023/08/07 00:22:27;;;;;;;0.50;0.50;;;20.90;71.50;;;;;;4975557;28;20034;-68
2023/08/07 00:24:52;;;;;;;0.55;0.40;;;20.90;71.80;;;;;;4983062;28;20038;-68
2023/08/07 00:27:18;;;;;;;2.03;0.70;;;21.00;71.60;;;;;;4981178;28;20037;-68
2023/08/07 00:29:43;;;;;;;0.50;0.50;;;20.90;71.60;;;;;;4977683;28;20031;-68
2023/08/07 00:32:09;;;;;;;1.35;0.60;;;20.90;71.70;;;;;;4981670;28;20054;-68
2023/08/07 00:34:35;;;;;;;0.60;0.60;;;20.90;71.50;;;;;;4980251;28;20031;-68
2023/08/07 00:37:00;;;;;;;2.80;0.85;;;20.90;71.60;;;;;;4983949;28;20023;-68
2023/08/07 00:39:26;;;;;;;0.77;0.50;;;20.90;71.60;;;;;;4981499;28;20038;-68
2023/08/07 00:41:51;;;;;;;0.65;0.50;;;20.90;71.60;;;;;;4982709;28;20073;-68
2023/08/07 00:44:17;;;;;;;0.60;0.50;;;20.90;71.20;;;;;;4981478;28;20030;-69
2023/08/07 00:46:43;;;;;;;0.50;0.50;;;20.90;72.20;;;;;;4979030;28;20468;-68
2023/08/07 00:49:10;;;;;;;1.77;0.50;;;20.90;71.70;;;;;;4979976;28;20034;-67
2023/08/07 00:51:37;;;;;;;1.90;0.60;;;20.90;71.50;;;;;;4975191;28;20058;-69
2023/08/07 00:54:04;;;;;;;0.75;0.40;;;20.90;71.60;;;;;;4981853;28;20030;-68
2023/08/07 00:56:31;;;;;;;0.70;0.60;;;20.90;71.30;;;;;;4976719;28;20047;-68
2023/08/07 00:58:58;;;;;;;0.90;0.50;;;20.90;71.40;;;;;;4969721;28;20026;-68
2023/08/07 01:01:24;;;;;;;1.83;0.40;;;20.90;71.50;;;;;;4976118;28;20022;-69
2023/08/07 01:03:50;;;;;;;1.50;0.52;;;20.90;71.30;;;;;;4975645;28;20039;-68
2023/08/07 01:06:15;;;;;;;0.82;0.50;;;20.90;71.40;;;;;;4979916;28;20033;-68
2023/08/07 01:08:41;;;;;;;0.80;0.55;;;20.90;71.30;;;;;;4977087;28;20042;-66
2023/08/07 01:11:34;;;;;;;0.68;0.47;;;20.90;71.40;;;;;;4982071;28;20034;-69
2023/08/07 01:14:26;;;;;;;0.38;0.38;;;20.90;71.10;;;;;;4980354;28;20501;-67
2023/08/07 01:17:14;;;;;;;0.80;0.52;;;20.90;71.30;;;;;;4978417;28;20552;-68
2023/08/07 01:19:41;;;;;;;0.40;0.40;;;20.90;71.30;;;;;;4976962;28;20138;-68
2023/08/07 01:22:11;;;;;;;0.68;0.50;;;20.90;71.30;;;;;;4977642;28;20326;-69
2023/08/07 01:24:38;;;;;;;0.30;0.30;;;20.90;71.20;;;;;;4974210;28;20122;-68
2023/08/07 01:27:44;;;;;;;0.70;0.50;;;20.90;71.30;;;;;;4977004;28;20038;-69
2023/08/07 01:30:21;;;;;;;;;;;20.90;71.30;;;;;;4983144;28;20027;-66
2023/08/07 01:32:56;;;;;;;0.55;0.52;;;20.90;71.30;;;;;;4982938;28;19910;-68
2023/08/07 01:35:26;;;;;;;1.15;0.50;;;20.80;70.60;;;;;;4984558;28;20433;-68
2023/08/07 01:37:54;;;;;;;0.98;0.60;;;20.80;71.30;;;;;;4983333;28;20038;-69
2023/08/07 01:40:21;;;;;;;0.75;0.50;;;20.80;71.40;;;;;;4984072;28;20101;-68
2023/08/07 01:42:47;;;;;;;0.57;0.50;;;20.90;71.20;;;;;;4984266;28;20022;-66
2023/08/07 01:45:13;;;;;;;1.60;0.50;;;20.90;71.10;;;;;;4983527;28;20331;-67
2023/08/07 01:47:38;;;;;;;0.60;0.57;;;20.90;71.20;;;;;;4980214;28;20084;-68
2023/08/07 01:50:04;;;;;;;0.60;0.60;;;20.90;71.10;;;;;;4981399;28;20370;-68
2023/08/07 01:52:30;;;;;;;2.75;0.60;;;20.90;71.20;;;;;;4980474;28;20038;-68
2023/08/07 01:54:55;;;;;;;0.60;0.40;;;20.90;71.10;;;;;;4994062;28;20427;-68
2023/08/07 01:57:21;;;;;;;0.93;0.52;;;20.90;71.20;;;;;;4983677;28;20398;-69
2023/08/07 01:59:47;;;;;;;0.30;0.30;;;20.90;71.70;;;;;;4979633;28;20029;-68
2023/08/07 02:02:12;;;;;;;0.60;0.60;;;20.90;71.10;;;;;;4984604;28;20056;-68
2023/08/07 02:04:38;;;;;;;0.60;0.40;;;20.90;71.10;;;;;;4983361;28;20034;-67
2023/08/07 02:07:04;;;;;;;0.60;0.57;;;20.80;71.30;;;;;;4985057;28;20133;-69
2023/08/07 02:09:29;;;;;;;0.63;0.40;;;20.80;71.40;;;;;;4975910;28;20038;-69
2023/08/07 02:11:55;;;;;;;1.80;0.63;;;20.80;71.30;;;;;;4976582;28;20413;-69
2023/08/07 02:14:20;;;;;;;0.50;0.40;;;20.90;71.40;;;;;;4983496;28;20034;-68
2023/08/07 02:16:46;;;;;;;2.13;0.57;;;20.80;70.80;;;;;;4982599;28;20327;-66
2023/08/07 02:19:11;;;;;;;1.77;0.50;;;20.80;70.90;;;;;;4979950;28;20097;-68
2023/08/07 02:21:37;;;;;;;0.30;0.30;;;20.80;71.30;;;;;;4979527;28;20027;-68
2023/08/07 02:24:02;;;;;;;0.47;0.40;;;20.80;71.20;;;;;;4979193;28;20541;-66
2023/08/07 02:26:28;;;;;;;0.63;0.40;;;20.80;70.90;;;;;;4983728;28;20027;-68
2023/08/07 02:28:53;;;;;;;0.50;0.40;;;20.80;71.10;;;;;;4982824;28;20034;-67
2023/08/07 02:31:19;;;;;;;0.93;0.85;;;20.80;71.20;;;;;;4983440;28;20429;-69
2023/08/07 02:33:44;;;;;;;1.05;0.60;;;20.70;70.40;;;;;;4984286;28;20046;-65
2023/08/07 02:36:10;;;;;;;1.10;0.60;;;20.70;71.00;;;;;;4986907;28;20026;-69
2023/08/07 02:38:35;;;;;;;0.57;0.57;;;20.70;71.30;;;;;;4983829;28;20490;-68
2023/08/07 02:41:01;;;;;;;0.82;0.60;;;20.70;71.10;;;;;;4981964;28;20081;-68
2023/08/07 02:43:28;;;;;;;0.40;0.40;;;20.70;71.10;;;;;;4982011;28;20453;-68
2023/08/07 02:45:54;;;;;;;0.63;0.40;;;20.70;71.10;;;;;;4982550;28;20037;-68
2023/08/07 02:48:19;;;;;;;0.52;0.52;;;20.70;70.80;;;;;;4980087;28;20405;-68
2023/08/07 02:50:45;;;;;;;0.75;0.45;;;20.60;70.70;;;;;;4977567;28;21601;-68
2023/08/07 02:53:11;;;;;;;0.85;0.60;;;20.70;71.00;;;;;;4980246;28;20069;-68
2023/08/07 02:55:37;;;;;;;1.20;0.70;;;20.70;71.20;;;;;;4978957;28;20430;-69
2023/08/07 02:58:02;;;;;;;1.33;0.80;;;20.70;70.30;;;;;;4982982;28;20066;-68
2023/08/07 03:00:28;;;;;;;0.35;0.35;;;20.50;70.80;;;;;;4982222;28;20060;-68
2023/08/07 03:02:53;;;;;;;0.80;0.68;;;20.60;71.40;;;;;;4982618;28;20089;-69
2023/08/07 03:05:19;;;;;;;0.70;0.65;;;20.60;69.80;;;;;;4983340;28;20038;-68
2023/08/07 03:07:44;;;;;;;3.38;0.68;;;20.50;71.20;;;;;;4991842;28;20034;-68
2023/08/07 03:10:11;;;;;;;0.90;0.50;;;20.50;70.90;;;;;;4981406;28;20058;-68
2023/08/07 03:12:37;;;;;;;0.85;0.85;;;20.50;71.30;;;;;;4982233;28;20428;-68
2023/08/07 03:15:05;;;;;;;0.80;0.70;;;20.50;70.90;;;;;;4978269;28;20057;-68
2023/08/07 03:17:30;;;;;;;0.60;0.60;;;20.50;71.00;;;;;;4976907;28;20061;-68
2023/08/07 03:19:56;;;;;;;1.25;0.60;;;20.50;71.10;;;;;;4974564;28;20035;-68
2023/08/07 03:22:21;;;;;;;0.80;0.80;;;20.50;71.20;;;;;;4981420;28;20057;-68
2023/08/07 03:24:48;;;;;;;0.77;0.77;;;20.50;71.00;;;;;;4978114;28;20026;-69
2023/08/07 03:27:13;;;;;;;1.38;0.50;;;20.50;70.90;;;;;;4981834;28;20177;-69
2023/08/07 03:29:39;;;;;;;0.82;0.70;;;20.50;71.10;;;;;;4981256;28;20077;-68
2023/08/07 03:32:05;;;;;;;1.52;0.60;;;20.50;71.10;;;;;;4982752;28;20050;-68
2023/08/07 03:34:30;;;;;;;0.88;0.50;;;20.60;71.10;;;;;;4980258;28;20046;-68
2023/08/07 03:36:56;;;;;;;0.77;0.50;;;20.60;70.80;;;;;;4978960;28;20031;-70
2023/08/07 03:39:21;;;;;;;0.93;0.50;;;20.60;70.80;;;;;;4983248;28;20038;-68
2023/08/07 03:41:47;;;;;;;1.67;0.93;;;20.50;70.60;;;;;;4980517;28;20038;-68
2023/08/07 03:44:12;;;;;;;1.80;0.80;;;20.50;70.20;;;;;;4979793;28;20038;-69
2023/08/07 03:46:38;;;;;;;0.52;0.47;;;20.50;71.40;;;;;;4975886;28;20478;-69
2023/08/07 03:49:03;;;;;;;0.82;0.50;;;20.50;70.90;;;;;;4977375;28;20057;-68
2023/08/07 03:51:30;;;;;;;1.13;0.73;;;20.50;71.70;;;;;;4978763;28;20056;-69
2023/08/07 03:53:56;;;;;;;2.22;1.33;;;20.50;71.10;;;;;;4979783;28;20584;-68
2023/08/07 03:56:21;;;;;;;0.60;0.60;;;20.50;70.10;;;;;;4981003;28;20030;-68
2023/08/07 03:58:49;;;;;;;0.63;0.50;;;20.40;71.30;;;;;;4981419;28;20026;-68
2023/08/07 04:01:14;;;;;;;1.25;0.80;;;20.50;71.40;;;;;;4983364;28;20097;-68
2023/08/07 04:03:40;;;;;;;0.40;0.40;;;20.50;71.10;;;;;;4979796;28;20061;-68
2023/08/07 04:06:05;;;;;;;0.70;0.70;;;20.40;71.10;;;;;;4976130;28;20038;-68
2023/08/07 04:08:31;;;;;;;1.73;0.60;;;20.40;70.90;;;;;;4981882;28;20038;-68
2023/08/07 04:11:04;;;;;;;0.82;0.60;;;20.50;71.30;;;;;;4980543;28;20054;-69
2023/08/07 04:13:31;;;;;;;0.50;0.50;;;20.50;71.10;;;;;;4979984;28;20258;-69
2023/08/07 04:15:57;;;;;;;0.82;0.60;;;20.50;70.90;;;;;;4974023;28;20042;-69
2023/08/07 04:18:23;;;;;;;0.70;0.68;;;20.50;70.90;;;;;;4990152;28;20117;-68
2023/08/07 04:20:50;;;;;;;0.70;0.63;;;20.50;70.90;;;;;;4977342;28;20241;-68
2023/08/07 04:23:15;;;;;;;0.85;0.60;;;20.60;70.90;;;;;;4981275;28;20046;-69
2023/08/07 04:25:41;;;;;;;0.75;0.70;;;20.50;70.70;;;;;;4980657;28;20212;-68
2023/08/07 04:28:06;;;;;;;1.85;0.63;;;20.50;70.90;;;;;;4982461;28;20107;-70
2023/08/07 04:30:32;;;;;;;0.63;0.60;;;20.50;71.10;;;;;;4981528;28;20030;-69
2023/08/07 04:32:58;;;;;;;0.80;0.73;;;20.50;70.90;;;;;;4980211;28;20394;-68
2023/08/07 04:35:23;;;;;;;0.75;0.70;;;20.50;70.60;;;;;;4976747;28;20035;-68
2023/08/07 04:37:48;;;;;;;0.68;0.60;;;20.50;70.80;;;;;;4976245;28;20042;-69
2023/08/07 04:40:14;;;;;;;1.55;0.52;;;20.50;70.60;;;;;;4981454;28;20027;-69
2023/08/07 04:42:40;;;;;;;2.08;0.80;;;20.50;70.80;;;;;;4971598;28;20053;-69
2023/08/07 04:45:06;;;;;;;1.05;0.70;;;20.50;70.90;;;;;;4975646;28;20058;-69
2023/08/07 04:47:31;;;;;;;0.77;0.50;;;20.50;70.80;;;;;;4977557;28;20038;-69
2023/08/07 04:49:57;;;;;;;2.05;0.80;;;20.40;71.00;;;;;;4975901;28;20109;-69
2023/08/07 04:52:22;;;;;;;1.17;0.70;;;20.30;70.30;;;;;;4980464;28;20026;-69
2023/08/07 04:54:48;;;;;;;1.38;0.50;;;20.40;71.10;;;;;;4977871;28;20046;-69
2023/08/07 04:57:13;;;;;;;0.98;0.60;;;20.50;70.90;;;;;;4981960;28;20030;-68
2023/08/07 04:59:39;;;;;;;0.77;0.55;;;20.50;70.70;;;;;;4980899;28;20045;-68
2023/08/07 05:02:05;;;;;;;0.93;0.73;;;20.40;70.50;;;;;;4979335;28;20023;-68
2023/08/07 05:04:30;;;;;;;0.93;0.55;;;20.50;70.80;;;;;;4982106;28;20034;-68
2023/08/07 05:06:56;;;;;;;0.70;0.50;;;20.50;70.90;;;;;;4981471;28;20048;-69
2023/08/07 05:09:22;;;;;;;0.40;0.40;;;20.40;70.40;;;;;;4981034;28;20043;-68
2023/08/07 05:11:48;;;;;;;1.90;0.70;;;20.50;70.90;;;;;;4980170;28;20548;-68
2023/08/07 05:14:13;;;;;;;0.38;0.38;;;20.50;70.70;;;;;;4978404;28;20027;-68
2023/08/07 05:16:39;;;;;;;1.42;0.90;;;20.40;70.50;;;;;;4981154;28;20041;-68
2023/08/07 05:19:05;;;;;;;0.73;0.60;;;20.50;70.60;;;;;;4981926;28;20054;-70
2023/08/07 05:21:30;;;;;;;1.38;0.60;;;20.50;70.90;;;;;;4988906;28;20493;-69
2023/08/07 05:23:56;;;;;;;2.38;0.75;;;20.50;70.70;;;;;;4982931;28;20023;-68
2023/08/07 05:26:21;;;;;;;1.33;0.90;;;20.40;70.30;;;;;;4984817;28;20378;-67
2023/08/07 05:28:47;;;;;;;3.25;0.80;;;20.30;70.20;;;;;;4983613;28;20789;-68
2023/08/07 05:31:13;;;;;;;5.80;1.05;;;20.30;70.90;;;;;;4984017;28;20043;-68
2023/08/07 05:33:38;;;;;;;9.27;4.03;;;20.30;70.90;;;;;;4982893;28;20045;-69
2023/08/07 05:36:06;;;;;;;10.95;5.28;;;20.30;71.30;;;;;;4988657;28;20042;-70
2023/08/07 05:38:32;;;;;;;6.65;4.07;;;20.30;70.90;;;;;;4980425;28;20421;-69
2023/08/07 05:40:57;;;;;;;6.32;3.85;;;20.30;70.50;;;;;;4982227;28;20042;-69
2023/08/07 05:43:23;;;;;;;8.05;3.20;;;20.30;70.50;;;;;;4990369;28;20030;-70
2023/08/07 05:45:49;;;;;;;6.43;3.33;;;20.30;70.70;;;;;;4987576;28;20034;-70
2023/08/07 05:48:16;;;;;;;5.65;2.50;;;20.20;69.90;;;;;;4990244;28;20034;-68
2023/08/07 05:50:42;;;;;;;4.50;2.38;;;20.20;70.50;;;;;;4992785;28;20038;-70
2023/08/07 05:53:07;;;;;;;5.03;2.63;;;20.30;70.60;;;;;;4995055;28;20129;-68
2023/08/07 05:55:34;;;;;;;6.22;2.30;;;20.30;70.30;;;;;;4987471;28;20046;-68
2023/08/07 05:57:59;;;;;;;3.67;2.00;;;20.30;70.40;;;;;;4986824;28;20031;-68
2023/08/07 06:00:25;;;;;;;2.90;1.50;;;20.20;69.60;;;;;;4980677;28;20297;-70
2023/08/07 06:02:50;;;;;;;5.25;1.70;;;20.20;70.10;;;;;;4988061;28;20034;-69
2023/08/07 06:05:16;;;;;;;2.67;1.17;;;20.30;70.20;;;;;;4988311;28;20208;-68
2023/08/07 06:07:42;;;;;;;4.38;1.05;;;20.30;70.10;;;;;;4984342;28;20073;-68
2023/08/07 06:10:08;;;;;;;3.60;1.00;;;20.20;70.40;;;;;;4986470;28;20061;-69
2023/08/07 06:12:34;;;;;;;2.22;1.05;;;20.10;70.10;;;;;;4987487;28;20079;-69
2023/08/07 06:14:59;;;;;;;1.63;1.10;;;20.10;71.10;;;;;;4982343;28;20491;-68
2023/08/07 06:17:25;;;;;;;3.40;1.02;;;20.10;70.40;;;;;;4990670;28;20393;-67
2023/08/07 06:19:51;;;;;;;2.83;1.00;;;20.10;70.80;;;;;;4986883;28;20027;-68
2023/08/07 06:22:17;;;;;;;2.70;1.35;;;20.10;70.40;;;;;;4990704;28;20030;-69
2023/08/07 06:24:42;;;;;;;1.58;1.35;;;20.10;70.70;;;;;;4987404;28;20037;-69
2023/08/07 06:27:08;;;;;;;2.75;1.15;;;20.10;70.60;;;;;;4987762;28;20391;-69
2023/08/07 06:29:33;;;;;;;4.85;1.65;;;20.10;70.40;;;;;;4984969;28;20049;-68
2023/08/07 06:31:59;;;;;;;3.05;1.30;;;20.10;71.10;;;;;;4988589;28;20032;-69
2023/08/07 06:34:25;;;;;;;1.85;1.40;;;20.10;70.50;;;;;;4982862;28;20035;-69
2023/08/07 06:36:50;;;;;;;2.00;1.73;;;20.10;69.90;;;;;;4982315;28;20057;-69
2023/08/07 06:39:16;;;;;;;2.08;1.02;;;20.10;71.00;;;;;;4984625;28;20039;-69
2023/08/07 06:41:41;;;;;;;1.25;1.00;;;20.10;70.80;;;;;;4988857;28;20437;-69
2023/08/07 06:44:07;;;;;;;1.90;1.00;;;20.10;69.60;;;;;;4988464;28;20031;-68
2023/08/07 06:46:33;;;;;;;1.60;1.00;;;20.10;70.70;;;;;;4987135;28;20544;-69
2023/08/07 06:48:58;;;;;;;3.70;2.00;;;20.10;70.80;;;;;;4981027;28;20085;-70
2023/08/07 06:51:24;;;;;;;10.95;5.57;;;20.10;71.30;;;;;;4985986;28;20058;-69
2023/08/07 06:53:49;;;;;;;18.65;7.55;;;20.20;71.40;;;;;;4983028;28;20109;-69
2023/08/07 06:56:15;;;;;;;15.48;5.00;;;20.30;71.60;;;;;;4981105;28;20035;-69
2023/08/07 06:58:40;;;;;;;10.65;4.38;;;20.30;71.80;;;;;;4978850;28;20449;-70
2023/08/07 07:01:06;;;;;;;12.07;4.05;;;20.30;71.40;;;;;;4983969;28;20121;-70
2023/08/07 07:03:31;;;;;;;11.50;2.53;;;20.30;71.80;;;;;;4981277;28;20030;-70
2023/08/07 07:05:57;;;;;;;8.77;1.75;;;20.30;71.50;;;;;;4969455;28;20057;-66
2023/08/07 07:08:23;;;;;;;9.52;1.98;;;20.30;70.90;;;;;;4969060;28;20043;-70
2023/08/07 07:10:49;;;;;;;7.82;2.20;;;20.30;71.30;;;;;;4968637;28;20133;-70
2023/08/07 07:13:14;;;;;;;6.53;1.65;;;20.30;71.40;;;;;;4969882;28;20474;-68
2023/08/07 07:15:40;;;;;;;7.38;1.60;;;20.40;71.00;;;;;;4972019;28;20026;-68
2023/08/07 07:18:05;;;;;;;4.85;1.50;;;20.40;71.00;;;;;;4982221;28;20058;-70
2023/08/07 07:20:31;;;;;;;5.45;1.10;;;20.50;71.20;;;;;;4978435;28;20037;-69
2023/08/07 07:22:56;;;;;;;7.80;1.60;;;20.50;71.20;;;;;;4979271;28;20085;-69
2023/08/07 07:25:22;;;;;;;3.55;1.67;;;20.50;70.70;;;;;;4978055;28;20618;-69
2023/08/07 07:27:47;;;;;;;5.20;1.65;;;20.50;70.80;;;;;;4979337;28;20414;-69
2023/08/07 07:30:13;;;;;;;6.55;1.83;;;20.40;71.10;;;;;;4979876;28;20565;-70
2023/08/07 07:32:39;;;;;;;4.65;1.40;;;20.50;71.40;;;;;;4982659;28;20057;-70
2023/08/07 07:35:05;;;;;;;7.20;1.58;;;20.50;71.30;;;;;;4988102;28;20058;-70
2023/08/07 07:37:31;;;;;;;4.18;1.02;;;20.50;71.20;;;;;;4983068;28;20311;-69
2023/08/07 07:39:57;;;;;;;4.30;1.27;;;20.50;71.20;;;;;;4978269;28;20026;-69
2023/08/07 07:42:22;;;;;;;6.78;1.33;;;20.50;71.20;;;;;;4980684;28;20031;-69
2023/08/07 07:44:48;;;;;;;3.50;1.10;;;20.50;71.30;;;;;;4983071;28;20038;-68
2023/08/07 07:47:13;;;;;;;3.00;0.95;;;20.50;71.10;;;;;;4981813;28;20110;-69
2023/08/07 07:49:39;;;;;;;5.20;1.13;;;20.50;71.00;;;;;;4976691;28;20395;-69
2023/08/07 07:52:06;;;;;;;4.40;1.10;;;20.50;71.40;;;;;;4975967;28;20053;-67
2023/08/07 07:54:31;;;;;;;3.28;1.15;;;20.50;71.00;;;;;;4977970;28;20093;-68
2023/08/07 07:56:57;;;;;;;2.13;0.73;;;20.50;71.10;;;;;;4980871;28;20603;-68
2023/08/07 07:59:22;;;;;;;1.20;0.85;;;20.50;70.30;;;;;;4982556;28;20026;-67
2023/08/07 08:01:48;;;;;;;3.78;0.93;;;20.50;70.60;;;;;;4978204;28;20042;-68
2023/08/07 08:04:13;;;;;;;4.60;1.05;;;20.50;70.60;;;;;;4987329;28;20098;-67
2023/08/07 08:06:40;;;;;;;2.90;0.90;;;20.50;70.80;;;;;;4981780;28;20088;-69
2023/08/07 08:09:09;;;;;;;4.25;0.93;;;20.50;70.70;;;;;;4973510;28;20049;-68
2023/08/07 08:11:34;;;;;;;4.38;1.20;;;20.50;70.80;;;;;;4975391;28;20347;-68
2023/08/07 08:14:00;;;;;;;1.10;0.93;;;20.50;70.70;;;;;;4982437;28;20034;-68
2023/08/07 08:16:25;;;;;;;2.17;0.70;;;20.50;70.70;;;;;;4977395;28;20049;-68
2023/08/07 08:18:51;;;;;;;1.95;0.93;;;20.50;70.60;;;;;;4978687;28;20026;-67
2023/08/07 08:21:16;;;;;;;2.70;1.08;;;20.50;70.80;;;;;;4978765;28;20354;-68
2023/08/07 08:23:42;;;;;;;1.63;0.70;;;20.50;70.80;;;;;;4980754;28;20035;-68
2023/08/07 08:26:07;;;;;;;1.67;0.80;;;20.50;70.60;;;;;;4976395;28;20046;-68
2023/08/07 08:28:33;;;;;;;1.80;0.70;;;20.40;70.90;;;;;;4969928;28;20048;-68
2023/08/07 08:30:58;;;;;;;2.97;0.60;;;20.40;70.70;;;;;;4974379;28;20090;-69
2023/08/07 08:33:24;;;;;;;2.45;0.60;;;20.40;71.10;;;;;;4968286;28;20454;-68
2023/08/07 08:35:49;;;;;;;0.68;0.57;;;20.40;70.80;;;;;;4971699;28;20423;-68
2023/08/07 08:38:16;;;;;;;2.10;0.65;;;20.40;70.70;;;;;;4968459;28;20046;-68
2023/08/07 08:40:43;;;;;;;0.85;0.68;;;20.40;70.70;;;;;;4969804;28;20058;-68
2023/08/07 08:43:12;;;;;;;2.92;0.95;;;20.40;70.70;;;;;;4967772;28;20498;-68
2023/08/07 08:45:39;;;;;;;2.53;0.77;;;20.50;70.90;;;;;;4967574;28;20063;-68
2023/08/07 08:48:07;;;;;;;1.13;0.50;;;20.40;70.80;;;;;;4965618;28;20038;-67
2023/08/07 08:50:33;;;;;;;2.40;0.70;;;20.40;70.70;;;;;;4966247;28;20086;-67
2023/08/07 08:53:00;;;;;;;2.13;0.77;;;20.40;70.50;;;;;;4955815;28;20036;-68
2023/08/07 08:55:26;;;;;;;2.85;0.60;;;20.30;70.40;;;;;;4976592;28;20031;-67
2023/08/07 08:57:53;;;;;;;3.30;0.65;;;20.30;70.60;;;;;;4964115;28;20121;-67
2023/08/07 09:00:22;;;;;;;2.15;1.00;;;20.40;70.80;;;;;;4976754;28;20038;-68
2023/08/07 09:02:49;;;;;;;4.47;0.95;;;20.40;70.80;;;;;;4976132;28;20038;-67
2023/08/07 09:05:19;;;;;;;2.85;1.05;;;20.40;71.20;;;;;;4976290;28;20039;-67
2023/08/07 09:07:46;;;;;;;4.15;1.05;;;20.50;71.30;;;;;;4976357;28;20037;-67
2023/08/07 09:10:13;;;;;;;3.97;0.77;;;20.40;71.40;;;;;;4979203;28;20034;-67
2023/08/07 09:12:47;;;;;;;0.50;0.50;;;20.40;71.70;;;;;;4980496;28;20174;-68
2023/08/07 09:15:17;;;;;;;1.55;0.40;;;20.40;72.30;;;;;;4974156;28;20398;-68
2023/08/07 09:17:44;;;;;;;0.90;0.57;;;20.40;71.40;;;;;;4977913;28;20088;-68
2023/08/07 09:20:11;;;;;;;1.02;0.77;;;20.40;71.30;;;;;;4979591;28;20443;-68
2023/08/07 09:22:38;;;;;;;0.88;0.60;;;20.40;70.90;;;;;;4979298;28;20056;-67
2023/08/07 09:25:04;;;;;;;0.90;0.70;;;20.40;71.00;;;;;;4971516;28;20057;-67
2023/08/07 09:27:31;;;;;;;1.75;0.57;;;20.40;70.50;;;;;;4974180;28;20466;-67
2023/08/07 09:29:58;;;;;;;0.77;0.70;;;20.40;70.70;;;;;;4971833;28;20059;-68
2023/08/07 09:32:24;;;;;;;0.68;0.40;;;20.40;70.80;;;;;;4985563;28;20042;-68
2023/08/07 09:34:51;;;;;;;0.57;0.57;;;20.40;70.90;;;;;;4971757;28;20031;-67
2023/08/07 09:37:17;;;;;;;1.65;0.40;;;20.30;70.70;;;;;;4969796;28;20042;-68
2023/08/07 09:39:43;;;;;;;1.05;0.43;;;20.30;70.40;;;;;;4968291;28;20511;-68
2023/08/07 09:42:16;;;;;;;1.60;0.40;;;20.30;70.30;;;;;;4973443;28;20112;-68
2023/08/07 09:44:43;;;;;;;0.50;0.50;;;20.30;70.40;;;;;;4966525;28;20029;-67
2023/08/07 09:47:16;;;;;;;1.27;0.60;;;20.30;70.10;;;;;;4969334;28;20046;-68
2023/08/07 09:49:43;;;;;;;1.27;0.60;;;20.20;70.10;;;;;;4969980;28;20402;-68
2023/08/07 09:52:13;;;;;;;0.90;0.50;;;20.20;69.80;;;;;;4973197;28;20035;-68
2023/08/07 09:54:38;;;;;;;0.50;0.50;;;20.30;70.00;;;;;;4972588;28;20035;-67
2023/08/07 09:57:05;;;;;;;0.80;0.60;;;20.20;69.70;;;;;;4966662;28;20030;-67
2023/08/07 09:59:32;;;;;;;2.35;0.80;;;20.30;69.90;;;;;;4980515;28;20038;-69
2023/08/07 10:02:00;;;;;;;2.40;0.70;;;20.40;70.10;;;;;;4999426;28;20482;-69
2023/08/07 10:04:26;;;;;;;1.50;0.63;;;20.40;70.10;;;;;;4983766;28;20532;-68
2023/08/07 10:06:53;;;;;;;0.70;0.50;;;20.40;70.20;;;;;;4984645;28;20099;-68
2023/08/07 10:09:19;;;;;;;1.88;0.60;;;20.40;70.10;;;;;;4974072;28;20046;-68
2023/08/07 10:11:45;;;;;;;3.42;0.60;;;20.50;70.30;;;;;;4982952;28;20386;-68
2023/08/07 10:14:13;;;;;;;2.78;0.75;;;20.60;70.10;;;;;;4983191;28;20035;-69
2023/08/07 10:16:41;;;;;;;0.95;0.55;;;20.60;69.90;;;;;;4978666;28;20030;-68
2023/08/07 10:19:09;;;;;;;0.70;0.30;;;20.60;69.90;;;;;;4981986;28;20038;-68
2023/08/07 10:21:37;;;;;;;0.68;0.40;;;20.70;69.90;;;;;;4976501;28;20573;-67
2023/08/07 10:24:04;;;;;;;1.00;0.50;;;20.70;70.00;;;;;;4980872;28;20042;-66
2023/08/07 10:26:32;;;;;;;0.65;0.47;;;20.70;70.00;;;;;;4983406;28;20081;-67
2023/08/07 10:29:02;;;;;;;2.28;0.50;;;20.70;69.90;;;;;;4986230;28;20031;-67
2023/08/07 10:31:29;;;;;;;1.85;0.45;;;20.80;69.40;;;;;;4981793;28;20612;-66
2023/08/07 10:33:54;;;;;;;2.15;0.45;;;20.80;70.00;;;;;;4984888;28;20077;-68
2023/08/07 10:36:20;;;;;;;1.25;0.35;;;20.80;69.70;;;;;;4975370;28;20043;-67
2023/08/07 10:38:51;;;;;;;1.48;0.45;;;20.80;69.70;;;;;;4981575;28;20141;-67
2023/08/07 10:41:18;;;;;;;5.95;0.57;;;20.80;69.60;;;;;;4982679;28;20085;-67
2023/08/07 10:43:47;;;;;;;1.48;0.45;;;20.80;69.70;;;;;;4979328;28;20035;-68
2023/08/07 10:46:16;;;;;;;1.40;0.40;;;20.80;69.50;;;;;;4980133;28;20031;-67
2023/08/07 10:48:47;;;;;;;1.40;0.45;;;20.80;69.50;;;;;;4979406;28;20054;-68
2023/08/07 10:51:14;;;;;;;1.23;0.50;;;20.80;69.60;;;;;;4982188;28;20100;-67
2023/08/07 10:53:46;;;;;;;1.73;0.60;;;20.80;69.40;;;;;;4983797;28;20057;-69
2023/08/07 10:56:37;;;;;;;3.88;0.60;;;20.90;69.20;;;;;;4983030;28;20612;-70
2023/08/07 10:59:10;;;;;;;4.60;0.73;;;20.80;69.30;;;;;;4984126;28;20585;-69
2023/08/07 11:01:38;;;;;;;1.88;0.60;;;20.80;69.40;;;;;;4980681;28;20535;-69
2023/08/07 11:04:12;;;;;;;1.50;0.43;;;20.90;69.30;;;;;;4974316;28;20426;-69
2023/08/07 11:06:39;;;;;;;1.58;0.43;;;20.90;69.40;;;;;;4980064;28;20043;-71
2023/08/07 11:09:06;;;;;;;1.25;0.40;;;20.90;69.20;;;;;;4980163;28;20416;-69
2023/08/07 11:11:43;;;;;;;1.23;0.50;;;20.80;69.10;;;;;;4969220;28;20418;-69
2023/08/07 11:14:11;;;;;;;2.35;0.50;;;20.80;69.10;;;;;;4971373;28;20061;-69
2023/08/07 11:16:37;;;;;;;2.47;0.47;;;20.80;69.40;;;;;;4968969;28;20050;-67
2023/08/07 11:19:04;;;;;;;1.80;0.52;;;20.80;69.50;;;;;;4970662;28;20530;-69
2023/08/07 11:21:32;;;;;;;1.45;0.28;;;20.70;69.50;;;;;;4968998;28;20061;-69
2023/08/07 11:23:57;;;;;;;3.95;0.60;;;20.80;69.50;;;;;;4974501;28;20030;-70
2023/08/07 11:26:25;;;;;;;0.60;0.60;;;20.80;69.60;;;;;;4967180;28;20386;-70
2023/08/07 11:28:51;;;;;;;0.40;0.35;;;20.70;69.30;;;;;;4969875;28;20581;-69
2023/08/07 11:31:20;;;;;;;2.95;0.73;;;20.60;69.30;;;;;;4966480;28;20122;-69
2023/08/07 11:33:46;;;;;;;2.65;0.40;;;20.70;69.50;;;;;;4967962;28;20098;-70
2023/08/07 11:36:13;;;;;;;0.57;0.40;;;20.70;69.30;;;;;;4967070;28;20303;-71
2023/08/07 11:38:43;;;;;;;1.42;0.35;;;20.70;69.30;;;;;;4970157;28;20056;-67
2023/08/07 11:41:11;;;;;;;0.60;0.30;;;20.70;69.20;;;;;;4968704;28;20078;-69
2023/08/07 11:43:37;;;;;;;0.65;0.60;;;20.70;69.20;;;;;;4968868;28;20133;-70
2023/08/07 11:46:08;;;;;;;1.85;0.40;;;20.70;69.30;;;;;;4969192;28;20194;-68
2023/08/07 11:48:35;;;;;;;1.55;0.32;;;20.60;69.10;;;;;;4967538;28;20042;-68
2023/08/07 11:51:02;;;;;;;0.30;0.30;;;20.70;69.30;;;;;;4967664;28;20062;-68
2023/08/07 11:53:31;;;;;;;1.38;0.40;;;20.70;68.90;;;;;;4983302;28;20125;-67
2023/08/07 11:56:00;;;;;;;0.45;0.30;;;20.70;68.90;;;;;;4964014;28;20177;-68
2023/08/07 11:58:28;;;;;;;1.77;0.50;;;20.60;69.20;;;;;;4980754;28;20035;-68
2023/08/07 12:00:54;;;;;;;1.55;0.60;;;20.60;69.30;;;;;;4980123;28;20042;-69
2023/08/07 12:03:28;;;;;;;3.50;0.70;;;20.60;69.60;;;;;;4979246;28;20370;-68
2023/08/07 12:05:56;;;;;;;0.85;0.40;;;20.70;70.00;;;;;;4983396;28;20026;-68
2023/08/07 12:08:21;;;;;;;2.65;0.40;;;20.70;70.00;;;;;;4982553;28;20437;-68
2023/08/07 12:10:54;;;;;;;0.93;0.40;;;20.70;70.00;;;;;;4982905;28;20045;-68
2023/08/07 12:13:23;;;;;;;3.58;0.50;;;20.70;70.00;;;;;;4981190;28;20038;-68
2023/08/07 12:15:52;;;;;;;1.83;0.30;;;20.70;69.80;;;;;;4977871;28;20027;-69
2023/08/07 12:18:19;;;;;;;2.97;0.55;;;20.60;69.90;;;;;;4980650;28;20038;-67
2023/08/07 12:20:45;;;;;;;1.20;0.40;;;20.70;70.40;;;;;;4979190;28;20030;-68
2023/08/07 12:23:16;;;;;;;0.73;0.30;;;20.70;70.10;;;;;;4978913;28;20042;-68
2023/08/07 12:25:42;;;;;;;0.77;0.43;;;20.70;70.10;;;;;;4977466;28;20073;-69
2023/08/07 12:28:08;;;;;;;0.93;0.50;;;20.70;70.20;;;;;;4980026;28;20144;-68
2023/08/07 12:30:37;;;;;;;1.95;0.40;;;20.70;69.80;;;;;;4979370;28;20545;-68
2023/08/07 12:33:04;;;;;;;1.00;0.40;;;20.70;70.10;;;;;;4981363;28;20038;-67
2023/08/07 12:35:30;;;;;;;0.32;0.30;;;20.70;69.90;;;;;;4980205;28;20036;-68
2023/08/07 12:37:56;;;;;;;1.90;0.30;;;20.60;69.90;;;;;;4977888;28;20039;-68
2023/08/07 12:40:22;;;;;;;2.47;0.47;;;20.60;70.20;;;;;;4980800;28;20035;-67
2023/08/07 12:42:49;;;;;;;1.40;0.40;;;20.60;70.30;;;;;;4976472;28;20043;-68
2023/08/07 12:45:15;;;;;;;1.35;0.20;;;20.70;70.40;;;;;;4979826;28;20042;-67